DLH6CF EPWA-EDDF
Flight info
| Callsign | DLH6CF |
|---|---|
| Flight time | 1h 20m |
| Altitude | 36000 |
| Route | LOLSI DCT DIBLO DCT INDIG DCT KORUP DCT SULED DCT ROBEL T178 KERAX KERAX5A |
| Aircraft | A321/M-SDE3FGHIRWY/LB1 |
Departure
| Time | 2026-05-04 18:30 |
|---|---|
| Airport | Warsaw Chopin Airport (EPWA) |
Arrival
| Time | 2026-05-04 19:50 |
|---|---|
| Airport | Frankfurt Main Airport (EDDF) |
| Time | Latitude | Longitude | Altitude | Speed | Heading |
|---|---|---|---|---|---|
| 2026-05-04 18:03 | 52.17149 | 20.97010 | 335 ft | 0 kts | 62° |
| 2026-05-04 18:22 | 52.17137 | 20.96976 | 338 ft | 4 kts | 62° |
| 2026-05-04 18:22 | 52.17125 | 20.96938 | 333 ft | 2 kts | 62° |
| 2026-05-04 18:22 | 52.17117 | 20.96906 | 334 ft | 4 kts | 97° |
| 2026-05-04 18:23 | 52.17128 | 20.96870 | 334 ft | 4 kts | 140° |
| 2026-05-04 18:23 | 52.17142 | 20.96854 | 339 ft | 0 kts | 152° |
| 2026-05-04 18:25 | 52.17139 | 20.96857 | 339 ft | 3 kts | 152° |
| 2026-05-04 18:25 | 52.17099 | 20.96891 | 336 ft | 10 kts | 152° |
| 2026-05-04 18:26 | 52.17021 | 20.96960 | 337 ft | 16 kts | 152° |
| 2026-05-04 18:26 | 52.16906 | 20.97061 | 336 ft | 21 kts | 152° |
| 2026-05-04 18:26 | 52.16771 | 20.97178 | 333 ft | 23 kts | 152° |
| 2026-05-04 18:26 | 52.16639 | 20.97292 | 337 ft | 15 kts | 152° |
| 2026-05-04 18:27 | 52.16564 | 20.97406 | 336 ft | 15 kts | 119° |
| 2026-05-04 18:27 | 52.16518 | 20.97565 | 336 ft | 16 kts | 112° |
| 2026-05-04 18:27 | 52.16476 | 20.97724 | 339 ft | 13 kts | 114° |
| 2026-05-04 18:27 | 52.16414 | 20.97804 | 338 ft | 12 kts | 186° |
| 2026-05-04 18:28 | 52.16391 | 20.97789 | 337 ft | 0 kts | 206° |
| 2026-05-04 18:28 | 52.16389 | 20.97787 | 337 ft | 2 kts | 206° |
| 2026-05-04 18:29 | 52.16363 | 20.97767 | 338 ft | 7 kts | 206° |
| 2026-05-04 18:29 | 52.16310 | 20.97722 | 333 ft | 8 kts | 219° |
| 2026-05-04 18:29 | 52.16317 | 20.97627 | 334 ft | 12 kts | 296° |
| 2026-05-04 18:29 | 52.16418 | 20.97275 | 333 ft | 69 kts | 294° |
| 2026-05-04 18:30 | 52.17161 | 20.94582 | 559 ft | 167 kts | 293° |
| 2026-05-04 18:30 | 52.17640 | 20.92873 | 1250 ft | 168 kts | 292° |
| 2026-05-04 18:30 | 52.18112 | 20.91131 | 1866 ft | 170 kts | 285° |
| 2026-05-04 18:31 | 52.18161 | 20.89132 | 2089 ft | 188 kts | 261° |
| 2026-05-04 18:31 | 52.18013 | 20.86887 | 2288 ft | 210 kts | 263° |
| 2026-05-04 18:31 | 52.17930 | 20.84379 | 2455 ft | 233 kts | 267° |
| 2026-05-04 18:31 | 52.17915 | 20.81617 | 2820 ft | 250 kts | 269° |
| 2026-05-04 18:32 | 52.17923 | 20.78763 | 3520 ft | 253 kts | 269° |
| 2026-05-04 18:32 | 52.17937 | 20.75873 | 4242 ft | 256 kts | 269° |
| 2026-05-04 18:32 | 52.17949 | 20.73001 | 4959 ft | 258 kts | 269° |
| 2026-05-04 18:32 | 52.17956 | 20.70061 | 5662 ft | 261 kts | 269° |
| 2026-05-04 18:33 | 52.17961 | 20.67094 | 6371 ft | 263 kts | 269° |
| 2026-05-04 18:33 | 52.17966 | 20.64100 | 7040 ft | 266 kts | 269° |
| 2026-05-04 18:33 | 52.17971 | 20.61086 | 7723 ft | 267 kts | 268° |
| 2026-05-04 18:33 | 52.17973 | 20.58042 | 8386 ft | 270 kts | 268° |
| 2026-05-04 18:34 | 52.17975 | 20.54963 | 9060 ft | 272 kts | 268° |
| 2026-05-04 18:34 | 52.17973 | 20.51871 | 9737 ft | 275 kts | 268° |
| 2026-05-04 18:34 | 52.17968 | 20.48719 | 10170 ft | 286 kts | 268° |
| 2026-05-04 18:34 | 52.17959 | 20.45365 | 10301 ft | 306 kts | 268° |
| 2026-05-04 18:35 | 52.17953 | 20.41787 | 10423 ft | 325 kts | 268° |
| 2026-05-04 18:35 | 52.17947 | 20.38008 | 10622 ft | 340 kts | 268° |
| 2026-05-04 18:35 | 52.17939 | 20.34123 | 11104 ft | 345 kts | 268° |
| 2026-05-04 18:35 | 52.17930 | 20.30202 | 11681 ft | 347 kts | 268° |
| 2026-05-04 18:36 | 52.17920 | 20.26257 | 12263 ft | 349 kts | 268° |
| 2026-05-04 18:36 | 52.17910 | 20.22289 | 12841 ft | 351 kts | 268° |
| 2026-05-04 18:36 | 52.17899 | 20.18299 | 13428 ft | 353 kts | 268° |
| 2026-05-04 18:36 | 52.17886 | 20.14287 | 13972 ft | 355 kts | 268° |
| 2026-05-04 18:37 | 52.17871 | 20.10241 | 14461 ft | 358 kts | 268° |
| 2026-05-04 18:37 | 52.17854 | 20.06168 | 14950 ft | 361 kts | 268° |
| 2026-05-04 18:37 | 52.17835 | 20.02064 | 15438 ft | 364 kts | 268° |
| 2026-05-04 18:37 | 52.17811 | 19.97927 | 15924 ft | 367 kts | 268° |
| 2026-05-04 18:38 | 52.17785 | 19.93757 | 16401 ft | 370 kts | 268° |
| 2026-05-04 18:38 | 52.17759 | 19.89554 | 16865 ft | 373 kts | 268° |
| 2026-05-04 18:38 | 52.17595 | 19.85337 | 17305 ft | 374 kts | 261° |
| 2026-05-04 18:38 | 52.17220 | 19.81125 | 17734 ft | 377 kts | 261° |
| 2026-05-04 18:39 | 52.16841 | 19.76883 | 18173 ft | 380 kts | 261° |
| 2026-05-04 18:39 | 52.16456 | 19.72612 | 18559 ft | 382 kts | 261° |
| 2026-05-04 18:39 | 52.16069 | 19.68314 | 18950 ft | 385 kts | 261° |
| 2026-05-04 18:39 | 52.15680 | 19.63993 | 19327 ft | 387 kts | 261° |
| 2026-05-04 18:40 | 52.15290 | 19.59710 | 19714 ft | 389 kts | 261° |
| 2026-05-04 18:40 | 52.14889 | 19.55288 | 20109 ft | 391 kts | 261° |
| 2026-05-04 18:40 | 52.14497 | 19.50961 | 20499 ft | 393 kts | 261° |
| 2026-05-04 18:40 | 52.14096 | 19.46544 | 20884 ft | 395 kts | 261° |
| 2026-05-04 18:41 | 52.13688 | 19.42124 | 21276 ft | 397 kts | 261° |
| 2026-05-04 18:41 | 52.13274 | 19.37665 | 21637 ft | 399 kts | 261° |
| 2026-05-04 18:41 | 52.12854 | 19.33195 | 22005 ft | 401 kts | 261° |
| 2026-05-04 18:41 | 52.12419 | 19.28698 | 22379 ft | 403 kts | 261° |
| 2026-05-04 18:42 | 52.11969 | 19.24177 | 22733 ft | 406 kts | 260° |
| 2026-05-04 18:42 | 52.11514 | 19.19639 | 23096 ft | 408 kts | 261° |
| 2026-05-04 18:42 | 52.11056 | 19.15077 | 23452 ft | 410 kts | 261° |
| 2026-05-04 18:42 | 52.10596 | 19.10492 | 23759 ft | 412 kts | 261° |
| 2026-05-04 18:43 | 52.10133 | 19.05887 | 24058 ft | 413 kts | 261° |
| 2026-05-04 18:43 | 52.09668 | 19.01265 | 24364 ft | 415 kts | 261° |
| 2026-05-04 18:43 | 52.09202 | 18.96618 | 24686 ft | 416 kts | 261° |
| 2026-05-04 18:43 | 52.08734 | 18.91972 | 25021 ft | 417 kts | 261° |
| 2026-05-04 18:44 | 52.08258 | 18.87317 | 25332 ft | 418 kts | 261° |
| 2026-05-04 18:44 | 52.07939 | 18.84220 | 25539 ft | 419 kts | 261° |
| 2026-05-04 18:44 | 52.07295 | 18.77962 | 25939 ft | 421 kts | 261° |
| 2026-05-04 18:44 | 52.06811 | 18.73259 | 26234 ft | 423 kts | 261° |
| 2026-05-04 18:45 | 52.06323 | 18.68539 | 26521 ft | 424 kts | 261° |
| 2026-05-04 18:45 | 52.05828 | 18.63795 | 26806 ft | 426 kts | 261° |
| 2026-05-04 18:45 | 52.05332 | 18.59052 | 27079 ft | 428 kts | 261° |
| 2026-05-04 18:45 | 52.04833 | 18.54275 | 27344 ft | 429 kts | 261° |
| 2026-05-04 18:46 | 52.04330 | 18.49492 | 27603 ft | 430 kts | 261° |
| 2026-05-04 18:46 | 52.03823 | 18.44695 | 27850 ft | 432 kts | 261° |
| 2026-05-04 18:46 | 52.03312 | 18.39886 | 28108 ft | 433 kts | 261° |
| 2026-05-04 18:46 | 52.02804 | 18.35131 | 28338 ft | 434 kts | 261° |
| 2026-05-04 18:47 | 52.02290 | 18.30300 | 28558 ft | 435 kts | 261° |
| 2026-05-04 18:47 | 52.01773 | 18.25470 | 28856 ft | 434 kts | 261° |
| 2026-05-04 18:47 | 52.01255 | 18.20654 | 29165 ft | 433 kts | 261° |
| 2026-05-04 18:47 | 52.00734 | 18.15849 | 29477 ft | 432 kts | 260° |
| 2026-05-04 18:48 | 52.00211 | 18.11056 | 29785 ft | 431 kts | 260° |
| 2026-05-04 18:48 | 51.99688 | 18.06275 | 30084 ft | 430 kts | 260° |
| 2026-05-04 18:48 | 51.99166 | 18.01504 | 30349 ft | 429 kts | 261° |
| 2026-05-04 18:48 | 51.98647 | 17.96747 | 30609 ft | 428 kts | 260° |
| 2026-05-04 18:49 | 51.98124 | 17.92004 | 30870 ft | 427 kts | 260° |
| 2026-05-04 18:49 | 51.97600 | 17.87275 | 31145 ft | 426 kts | 260° |
| 2026-05-04 18:49 | 51.97072 | 17.82554 | 31430 ft | 424 kts | 260° |
| 2026-05-04 18:49 | 51.96544 | 17.77864 | 31708 ft | 422 kts | 260° |
| 2026-05-04 18:50 | 51.96019 | 17.73187 | 31976 ft | 421 kts | 260° |
| 2026-05-04 18:50 | 51.95495 | 17.68521 | 32230 ft | 420 kts | 260° |
| 2026-05-04 18:50 | 51.94970 | 17.63869 | 32491 ft | 419 kts | 260° |
| 2026-05-04 18:50 | 51.94447 | 17.59224 | 32744 ft | 418 kts | 260° |
| 2026-05-04 18:51 | 51.93921 | 17.54594 | 32991 ft | 417 kts | 260° |
| 2026-05-04 18:51 | 51.93392 | 17.49973 | 33208 ft | 417 kts | 260° |
| 2026-05-04 18:51 | 51.92860 | 17.45355 | 33424 ft | 417 kts | 260° |
| 2026-05-04 18:51 | 51.92326 | 17.40744 | 33659 ft | 416 kts | 260° |
| 2026-05-04 18:52 | 51.91793 | 17.36140 | 33907 ft | 416 kts | 260° |
| 2026-05-04 18:52 | 51.91263 | 17.31545 | 34116 ft | 415 kts | 260° |
| 2026-05-04 18:52 | 51.90733 | 17.26964 | 34346 ft | 413 kts | 260° |
| 2026-05-04 18:52 | 51.90200 | 17.22389 | 34548 ft | 413 kts | 260° |
| 2026-05-04 18:53 | 51.89668 | 17.17836 | 34730 ft | 412 kts | 260° |
| 2026-05-04 18:53 | 51.89131 | 17.13269 | 34900 ft | 412 kts | 260° |
| 2026-05-04 18:53 | 51.88594 | 17.08711 | 35070 ft | 412 kts | 260° |
| 2026-05-04 18:53 | 51.88054 | 17.04155 | 35240 ft | 412 kts | 260° |
| 2026-05-04 18:54 | 51.87511 | 16.99599 | 35405 ft | 412 kts | 260° |
| 2026-05-04 18:54 | 51.86968 | 16.95045 | 35573 ft | 412 kts | 260° |
| 2026-05-04 18:54 | 51.86426 | 16.90491 | 35742 ft | 412 kts | 260° |
| 2026-05-04 18:54 | 51.85881 | 16.85939 | 35901 ft | 413 kts | 260° |
| 2026-05-04 18:55 | 51.85333 | 16.81380 | 35948 ft | 413 kts | 260° |
| 2026-05-04 18:55 | 51.83675 | 16.67716 | 35950 ft | 412 kts | 259° |
| 2026-05-04 18:56 | 51.82558 | 16.58647 | 35931 ft | 411 kts | 259° |
| 2026-05-04 18:56 | 51.81628 | 16.51097 | 35945 ft | 412 kts | 259° |
| 2026-05-04 18:57 | 51.80508 | 16.42017 | 35949 ft | 412 kts | 259° |
| 2026-05-04 18:57 | 51.79380 | 16.32935 | 35955 ft | 412 kts | 259° |
| 2026-05-04 18:58 | 51.78242 | 16.23848 | 35953 ft | 413 kts | 259° |
| 2026-05-04 18:58 | 51.77094 | 16.14767 | 35956 ft | 413 kts | 258° |
| 2026-05-04 18:59 | 51.75940 | 16.05676 | 35960 ft | 414 kts | 259° |
| 2026-05-04 18:59 | 51.74780 | 15.96568 | 35962 ft | 414 kts | 258° |
| 2026-05-04 19:00 | 51.73609 | 15.87465 | 35964 ft | 415 kts | 258° |
| 2026-05-04 19:00 | 51.72422 | 15.78362 | 35969 ft | 415 kts | 258° |
| 2026-05-04 19:01 | 51.71227 | 15.69257 | 35972 ft | 415 kts | 258° |
| 2026-05-04 19:01 | 51.70032 | 15.60133 | 35969 ft | 416 kts | 258° |
| 2026-05-04 19:02 | 51.68831 | 15.51010 | 35972 ft | 417 kts | 258° |
| 2026-05-04 19:02 | 51.67616 | 15.41864 | 35977 ft | 417 kts | 258° |
| 2026-05-04 19:03 | 51.66395 | 15.32726 | 35978 ft | 417 kts | 258° |
| 2026-05-04 19:03 | 51.65155 | 15.23597 | 35979 ft | 417 kts | 258° |
| 2026-05-04 19:04 | 51.63911 | 15.14472 | 35980 ft | 417 kts | 258° |
| 2026-05-04 19:04 | 51.62677 | 15.05411 | 35992 ft | 416 kts | 258° |
| 2026-05-04 19:05 | 51.61439 | 14.96316 | 35994 ft | 416 kts | 258° |
| 2026-05-04 19:05 | 51.60184 | 14.87248 | 35988 ft | 415 kts | 257° |
| 2026-05-04 19:06 | 51.58920 | 14.78198 | 35986 ft | 415 kts | 257° |
| 2026-05-04 19:06 | 51.57629 | 14.69151 | 35966 ft | 415 kts | 256° |
| 2026-05-04 19:07 | 51.56213 | 14.60153 | 35969 ft | 416 kts | 255° |
| 2026-05-04 19:07 | 51.54759 | 14.51169 | 35989 ft | 415 kts | 255° |
| 2026-05-04 19:08 | 51.53329 | 14.42182 | 35988 ft | 415 kts | 256° |
| 2026-05-04 19:08 | 51.51904 | 14.33216 | 35987 ft | 414 kts | 256° |
| 2026-05-04 19:09 | 51.50475 | 14.24262 | 35988 ft | 414 kts | 255° |
| 2026-05-04 19:09 | 51.49034 | 14.15315 | 35987 ft | 414 kts | 255° |
| 2026-05-04 19:10 | 51.47586 | 14.06379 | 35989 ft | 414 kts | 255° |
| 2026-05-04 19:10 | 51.46134 | 13.97441 | 35986 ft | 414 kts | 255° |
| 2026-05-04 19:11 | 51.44676 | 13.88511 | 35970 ft | 414 kts | 255° |
| 2026-05-04 19:11 | 51.43207 | 13.79574 | 35974 ft | 415 kts | 255° |
| 2026-05-04 19:12 | 51.40985 | 13.66164 | 35979 ft | 415 kts | 255° |
| 2026-05-04 19:13 | 51.39485 | 13.57224 | 35985 ft | 416 kts | 254° |
| 2026-05-04 19:13 | 51.37758 | 13.48392 | 35990 ft | 416 kts | 251° |
| 2026-05-04 19:14 | 51.35843 | 13.39649 | 35990 ft | 416 kts | 250° |
| 2026-05-04 19:14 | 51.33929 | 13.30918 | 35988 ft | 416 kts | 251° |
| 2026-05-04 19:15 | 51.32060 | 13.22165 | 35984 ft | 416 kts | 251° |
| 2026-05-04 19:15 | 51.30211 | 13.13395 | 35968 ft | 416 kts | 251° |
| 2026-05-04 19:16 | 51.28363 | 13.04701 | 35969 ft | 417 kts | 251° |
| 2026-05-04 19:16 | 51.26478 | 12.95946 | 35994 ft | 417 kts | 250° |
| 2026-05-04 19:17 | 51.24573 | 12.87193 | 35986 ft | 417 kts | 250° |
| 2026-05-04 19:17 | 51.22674 | 12.78454 | 35981 ft | 417 kts | 250° |
| 2026-05-04 19:18 | 51.20772 | 12.69711 | 35977 ft | 417 kts | 250° |
| 2026-05-04 19:18 | 51.18861 | 12.60969 | 35973 ft | 417 kts | 250° |
| 2026-05-04 19:19 | 51.16936 | 12.52242 | 35974 ft | 417 kts | 250° |
| 2026-05-04 19:19 | 51.15013 | 12.43518 | 35973 ft | 417 kts | 250° |
| 2026-05-04 19:20 | 51.13085 | 12.34808 | 35978 ft | 417 kts | 250° |
| 2026-05-04 19:20 | 51.11152 | 12.26120 | 35977 ft | 416 kts | 250° |
| 2026-05-04 19:21 | 51.09212 | 12.17441 | 35977 ft | 416 kts | 250° |
| 2026-05-04 19:21 | 51.07270 | 12.08783 | 35980 ft | 416 kts | 250° |
| 2026-05-04 19:22 | 51.05322 | 12.00135 | 35980 ft | 415 kts | 250° |
| 2026-05-04 19:22 | 51.03364 | 11.91503 | 35984 ft | 415 kts | 250° |
| 2026-05-04 19:23 | 51.01409 | 11.82875 | 35990 ft | 415 kts | 250° |
| 2026-05-04 19:23 | 50.99444 | 11.74263 | 35994 ft | 415 kts | 249° |
| 2026-05-04 19:24 | 50.97475 | 11.65663 | 35985 ft | 415 kts | 249° |
| 2026-05-04 19:24 | 50.96488 | 11.61351 | 35829 ft | 415 kts | 249° |
| 2026-05-04 19:24 | 50.95500 | 11.57052 | 35574 ft | 415 kts | 249° |
| 2026-05-04 19:24 | 50.94509 | 11.52749 | 35328 ft | 415 kts | 249° |
| 2026-05-04 19:25 | 50.93515 | 11.48456 | 35081 ft | 415 kts | 249° |
| 2026-05-04 19:25 | 50.92520 | 11.44168 | 34831 ft | 416 kts | 249° |
| 2026-05-04 19:25 | 50.91518 | 11.39862 | 34572 ft | 416 kts | 249° |
| 2026-05-04 19:25 | 50.90530 | 11.35623 | 33945 ft | 417 kts | 249° |
| 2026-05-04 19:26 | 50.89522 | 11.31308 | 33114 ft | 418 kts | 249° |
| 2026-05-04 19:26 | 50.88512 | 11.26988 | 32362 ft | 417 kts | 249° |
| 2026-05-04 19:26 | 50.87503 | 11.22677 | 31581 ft | 418 kts | 249° |
| 2026-05-04 19:26 | 50.86493 | 11.18363 | 30815 ft | 418 kts | 249° |
| 2026-05-04 19:27 | 50.85479 | 11.14038 | 29929 ft | 421 kts | 249° |
| 2026-05-04 19:27 | 50.84457 | 11.09694 | 29025 ft | 421 kts | 249° |
| 2026-05-04 19:27 | 50.83437 | 11.05372 | 28423 ft | 416 kts | 249° |
| 2026-05-04 19:27 | 50.82434 | 11.01126 | 27898 ft | 409 kts | 249° |
| 2026-05-04 19:28 | 50.81447 | 10.96941 | 27343 ft | 404 kts | 249° |
| 2026-05-04 19:28 | 50.80472 | 10.92814 | 26813 ft | 398 kts | 249° |
| 2026-05-04 19:28 | 50.79508 | 10.88740 | 26278 ft | 393 kts | 249° |
| 2026-05-04 19:28 | 50.78551 | 10.84719 | 25754 ft | 389 kts | 248° |
| 2026-05-04 19:29 | 50.77600 | 10.80748 | 25242 ft | 385 kts | 248° |
| 2026-05-04 19:29 | 50.76654 | 10.76802 | 24716 ft | 382 kts | 248° |
| 2026-05-04 19:29 | 50.75714 | 10.72890 | 24215 ft | 380 kts | 248° |
| 2026-05-04 19:29 | 50.74777 | 10.69000 | 23701 ft | 378 kts | 248° |
| 2026-05-04 19:30 | 50.73846 | 10.65131 | 23140 ft | 376 kts | 248° |
| 2026-05-04 19:30 | 50.72906 | 10.61231 | 22824 ft | 389 kts | 248° |
| 2026-05-04 19:30 | 50.71931 | 10.57192 | 22553 ft | 397 kts | 248° |
| 2026-05-04 19:30 | 50.70947 | 10.53115 | 22275 ft | 398 kts | 248° |
| 2026-05-04 19:31 | 50.69963 | 10.49040 | 22041 ft | 397 kts | 248° |
| 2026-05-04 19:31 | 50.68978 | 10.44973 | 21974 ft | 396 kts | 248° |
| 2026-05-04 19:31 | 50.67998 | 10.40939 | 21690 ft | 392 kts | 248° |
| 2026-05-04 19:31 | 50.67025 | 10.36940 | 21018 ft | 389 kts | 248° |
| 2026-05-04 19:32 | 50.66060 | 10.32969 | 20374 ft | 386 kts | 248° |
| 2026-05-04 19:32 | 50.65102 | 10.29041 | 19775 ft | 383 kts | 248° |
| 2026-05-04 19:32 | 50.64146 | 10.25136 | 19189 ft | 380 kts | 248° |
| 2026-05-04 19:32 | 50.63199 | 10.21278 | 18599 ft | 377 kts | 248° |
| 2026-05-04 19:33 | 50.62255 | 10.17433 | 17987 ft | 374 kts | 248° |
| 2026-05-04 19:33 | 50.61324 | 10.13633 | 17343 ft | 371 kts | 248° |
| 2026-05-04 19:33 | 50.60395 | 10.09854 | 16729 ft | 368 kts | 248° |
| 2026-05-04 19:33 | 50.59476 | 10.06122 | 16372 ft | 366 kts | 248° |
| 2026-05-04 19:34 | 50.58553 | 10.02388 | 15950 ft | 366 kts | 248° |
| 2026-05-04 19:34 | 50.57630 | 9.98669 | 15543 ft | 364 kts | 247° |
| 2026-05-04 19:34 | 50.56709 | 9.94968 | 15130 ft | 362 kts | 247° |
| 2026-05-04 19:34 | 50.55793 | 9.91292 | 14723 ft | 360 kts | 247° |
| 2026-05-04 19:35 | 50.54883 | 9.87632 | 14314 ft | 358 kts | 247° |
| 2026-05-04 19:35 | 50.53936 | 9.84022 | 13962 ft | 356 kts | 241° |
| 2026-05-04 19:35 | 50.52567 | 9.80808 | 13639 ft | 352 kts | 232° |
| 2026-05-04 19:35 | 50.51112 | 9.77750 | 13246 ft | 348 kts | 232° |
| 2026-05-04 19:36 | 50.49660 | 9.74729 | 12800 ft | 346 kts | 232° |
| 2026-05-04 19:36 | 50.48211 | 9.71736 | 12283 ft | 342 kts | 232° |
| 2026-05-04 19:36 | 50.46780 | 9.68790 | 11759 ft | 338 kts | 231° |
| 2026-05-04 19:36 | 50.45362 | 9.65869 | 11267 ft | 335 kts | 232° |
| 2026-05-04 19:37 | 50.43956 | 9.62969 | 10774 ft | 332 kts | 232° |
| 2026-05-04 19:37 | 50.42562 | 9.60093 | 10287 ft | 330 kts | 231° |
| 2026-05-04 19:37 | 50.41179 | 9.57245 | 9802 ft | 327 kts | 231° |
| 2026-05-04 19:37 | 50.39805 | 9.54417 | 9271 ft | 325 kts | 231° |
| 2026-05-04 19:38 | 50.38455 | 9.51639 | 8756 ft | 324 kts | 231° |
| 2026-05-04 19:38 | 50.37096 | 9.48844 | 8364 ft | 307 kts | 231° |
| 2026-05-04 19:38 | 50.35859 | 9.46305 | 8106 ft | 280 kts | 231° |
| 2026-05-04 19:38 | 50.34700 | 9.43931 | 7856 ft | 273 kts | 231° |
| 2026-05-04 19:39 | 50.33572 | 9.41624 | 7610 ft | 269 kts | 231° |
| 2026-05-04 19:39 | 50.32435 | 9.39303 | 7361 ft | 268 kts | 231° |
| 2026-05-04 19:39 | 50.31302 | 9.36991 | 7117 ft | 268 kts | 231° |
| 2026-05-04 19:39 | 50.30170 | 9.34678 | 6987 ft | 268 kts | 231° |
| 2026-05-04 19:40 | 50.29038 | 9.32366 | 6987 ft | 269 kts | 231° |
| 2026-05-04 19:40 | 50.27904 | 9.30051 | 6983 ft | 264 kts | 231° |
| 2026-05-04 19:40 | 50.26821 | 9.27840 | 6982 ft | 248 kts | 231° |
| 2026-05-04 19:40 | 50.25801 | 9.25762 | 6987 ft | 237 kts | 231° |
| 2026-05-04 19:41 | 50.24801 | 9.23729 | 6986 ft | 235 kts | 231° |
| 2026-05-04 19:41 | 50.23802 | 9.21701 | 6994 ft | 235 kts | 231° |
| 2026-05-04 19:41 | 50.22805 | 9.19678 | 6990 ft | 234 kts | 231° |
| 2026-05-04 19:41 | 50.21818 | 9.17668 | 6986 ft | 233 kts | 231° |
| 2026-05-04 19:42 | 50.21162 | 9.16332 | 6911 ft | 234 kts | 231° |
| 2026-05-04 19:42 | 50.20173 | 9.14326 | 6663 ft | 232 kts | 231° |
| 2026-05-04 19:42 | 50.19189 | 9.12338 | 6418 ft | 231 kts | 230° |
| 2026-05-04 19:42 | 50.18217 | 9.10374 | 6190 ft | 225 kts | 231° |
| 2026-05-04 19:43 | 50.17287 | 9.08493 | 6045 ft | 212 kts | 231° |
| 2026-05-04 19:43 | 50.16420 | 9.06738 | 6030 ft | 201 kts | 230° |
| 2026-05-04 19:43 | 50.15569 | 9.05021 | 6020 ft | 199 kts | 230° |
| 2026-05-04 19:43 | 50.14749 | 9.03273 | 6018 ft | 200 kts | 236° |
| 2026-05-04 19:44 | 50.14118 | 9.01332 | 6017 ft | 201 kts | 244° |
| 2026-05-04 19:44 | 50.13602 | 8.99306 | 6016 ft | 202 kts | 247° |
| 2026-05-04 19:44 | 50.13115 | 8.97255 | 6017 ft | 201 kts | 247° |
| 2026-05-04 19:44 | 50.12646 | 8.95252 | 5881 ft | 191 kts | 247° |
| 2026-05-04 19:45 | 50.12197 | 8.93333 | 5438 ft | 188 kts | 248° |
| 2026-05-04 19:45 | 50.11746 | 8.91414 | 4965 ft | 188 kts | 248° |
| 2026-05-04 19:45 | 50.11296 | 8.89498 | 4494 ft | 189 kts | 249° |
| 2026-05-04 19:45 | 50.10847 | 8.87585 | 4215 ft | 189 kts | 249° |
| 2026-05-04 19:46 | 50.10395 | 8.85662 | 3968 ft | 189 kts | 249° |
| 2026-05-04 19:46 | 50.09943 | 8.83743 | 3725 ft | 188 kts | 249° |
| 2026-05-04 19:46 | 50.09493 | 8.81831 | 3471 ft | 188 kts | 250° |
| 2026-05-04 19:46 | 50.09048 | 8.79943 | 3220 ft | 188 kts | 250° |
| 2026-05-04 19:47 | 50.08593 | 8.78015 | 2967 ft | 187 kts | 250° |
| 2026-05-04 19:47 | 50.08149 | 8.76134 | 2729 ft | 187 kts | 250° |
| 2026-05-04 19:47 | 50.07693 | 8.74206 | 2474 ft | 187 kts | 251° |
| 2026-05-04 19:47 | 50.07259 | 8.72369 | 2220 ft | 179 kts | 251° |
| 2026-05-04 19:48 | 50.06847 | 8.70633 | 1995 ft | 164 kts | 251° |
| 2026-05-04 19:48 | 50.06462 | 8.69009 | 1778 ft | 158 kts | 251° |
| 2026-05-04 19:48 | 50.06087 | 8.67424 | 1563 ft | 156 kts | 252° |
| 2026-05-04 19:48 | 50.05715 | 8.65850 | 1357 ft | 154 kts | 251° |
| 2026-05-04 19:49 | 50.05343 | 8.64290 | 1158 ft | 153 kts | 251° |
| 2026-05-04 19:49 | 50.04974 | 8.62744 | 952 ft | 152 kts | 251° |
| 2026-05-04 19:49 | 50.04613 | 8.61210 | 772 ft | 150 kts | 251° |
| 2026-05-04 19:49 | 50.04254 | 8.59700 | 574 ft | 149 kts | 251° |
| 2026-05-04 19:50 | 50.03898 | 8.58188 | 386 ft | 148 kts | 250° |
| 2026-05-04 19:50 | 50.03581 | 8.56863 | 357 ft | 101 kts | 249° |
| 2026-05-04 19:50 | 50.03439 | 8.56247 | 354 ft | 30 kts | 260° |
| 2026-05-04 19:50 | 50.03442 | 8.56016 | 347 ft | 19 kts | 278° |
| 2026-05-04 19:51 | 50.03457 | 8.55878 | 345 ft | 8 kts | 279° |
| 2026-05-04 19:51 | 50.03467 | 8.55786 | 348 ft | 11 kts | 279° |
| 2026-05-04 19:51 | 50.03484 | 8.55631 | 345 ft | 18 kts | 279° |
| 2026-05-04 19:51 | 50.03481 | 8.55425 | 347 ft | 17 kts | 252° |
| 2026-05-04 19:52 | 50.03435 | 8.55227 | 345 ft | 23 kts | 250° |
| 2026-05-04 19:52 | 50.03378 | 8.54991 | 344 ft | 26 kts | 249° |
| 2026-05-04 19:52 | 50.03311 | 8.54714 | 337 ft | 26 kts | 249° |
| 2026-05-04 19:52 | 50.03283 | 8.54516 | 337 ft | 15 kts | 298° |
| 2026-05-04 19:53 | 50.03369 | 8.54447 | 339 ft | 9 kts | 340° |
| 2026-05-04 19:53 | 50.03382 | 8.54440 | 337 ft | 0 kts | 340° |
| 2026-05-04 19:54 | 50.03383 | 8.54439 | 340 ft | 2 kts | 340° |
| 2026-05-04 19:54 | 50.03430 | 8.54413 | 351 ft | 11 kts | 339° |
| 2026-05-04 19:54 | 50.03506 | 8.54369 | 346 ft | 12 kts | 340° |
| 2026-05-04 19:55 | 50.03595 | 8.54318 | 349 ft | 13 kts | 339° |
| 2026-05-04 19:55 | 50.03647 | 8.54312 | 342 ft | 4 kts | 22° |
| 2026-05-04 19:55 | 50.03656 | 8.54328 | 348 ft | 0 kts | 55° |
| 2026-05-04 19:56 | 50.03656 | 8.54329 | 348 ft | 0 kts | 55° |
| 2026-05-04 19:56 | 50.03670 | 8.54365 | 350 ft | 10 kts | 64° |
| 2026-05-04 19:57 | 50.03706 | 8.54515 | 331 ft | 20 kts | 71° |
| 2026-05-04 19:57 | 50.03756 | 8.54731 | 354 ft | 18 kts | 69° |
| 2026-05-04 19:57 | 50.03800 | 8.54918 | 355 ft | 19 kts | 69° |
| 2026-05-04 19:57 | 50.03847 | 8.55108 | 352 ft | 19 kts | 69° |
| 2026-05-04 19:58 | 50.03894 | 8.55305 | 349 ft | 20 kts | 70° |
| 2026-05-04 19:58 | 50.03941 | 8.55504 | 356 ft | 17 kts | 69° |
| 2026-05-04 19:58 | 50.03984 | 8.55685 | 352 ft | 18 kts | 69° |
| 2026-05-04 19:58 | 50.04022 | 8.55841 | 354 ft | 10 kts | 69° |
| 2026-05-04 19:59 | 50.04030 | 8.55875 | 357 ft | 0 kts | 69° |
| 2026-05-04 20:03 | 50.04033 | 8.55889 | 357 ft | 3 kts | 70° |
| 2026-05-04 20:03 | 50.04050 | 8.55941 | 356 ft | 7 kts | 53° |
| 2026-05-04 20:04 | 50.04097 | 8.55965 | 352 ft | 8 kts | 354° |
| 2026-05-04 20:04 | 50.04161 | 8.55935 | 354 ft | 12 kts | 342° |
| 2026-05-04 20:04 | 50.04249 | 8.55949 | 358 ft | 15 kts | 22° |
| 2026-05-04 20:04 | 50.04356 | 8.55923 | 357 ft | 17 kts | 341° |
| 2026-05-04 20:05 | 50.04473 | 8.55931 | 358 ft | 17 kts | 16° |
| 2026-05-04 20:05 | 50.04570 | 8.56036 | 361 ft | 20 kts | 66° |
| 2026-05-04 20:05 | 50.04609 | 8.56196 | 360 ft | 11 kts | 69° |
| 2026-05-04 20:05 | 50.04632 | 8.56290 | 359 ft | 6 kts | 70° |
| 2026-05-04 20:06 | 50.04644 | 8.56340 | 364 ft | 4 kts | 70° |
| 2026-05-04 20:06 | 50.04649 | 8.56361 | 361 ft | 0 kts | 70° |
| 2026-05-04 20:10 | 50.04660 | 8.56393 | 362 ft | 5 kts | 55° |
| 2026-05-04 20:10 | 50.04702 | 8.56418 | 363 ft | 8 kts | 354° |
| 2026-05-04 20:10 | 50.04743 | 8.56396 | 359 ft | 4 kts | 340° |
| 2026-05-04 20:10 | 50.04752 | 8.56391 | 359 ft | 1 kts | 339° |